createdAt,value
2022-12-03T00:07:28.059Z,99.90001
2022-12-03T00:37:46.223Z,99.90001
2022-12-03T01:08:04.901Z,99.90001
2022-12-03T01:38:23.410Z,98.5
2022-12-03T02:39:00.073Z,96.3
2022-12-03T03:39:35.981Z,95.5
2022-12-03T04:40:29.376Z,95.5
2022-12-03T05:10:48.630Z,97
2022-12-03T05:41:05.706Z,97.2
2022-12-03T06:11:23.798Z,97.6
2022-12-03T06:41:42.794Z,97.3
2022-12-03T07:12:00.386Z,96.8
2022-12-03T07:42:18.914Z,95.6
2022-12-03T08:12:38.556Z,95.2
2022-12-03T08:42:57.008Z,94.7
2022-12-03T09:13:16.468Z,94.8
2022-12-03T09:44:02.666Z,95.2
2022-12-03T10:14:01.075Z,94.5
2022-12-03T10:44:20.271Z,94.3
2022-12-03T11:14:42.603Z,94.8
2022-12-03T11:45:00.259Z,95.6
2022-12-03T12:15:19.706Z,95.5
2022-12-03T12:45:37.844Z,95.80001
2022-12-03T13:15:55.925Z,96.4
2022-12-03T13:46:14.140Z,96.50001
2022-12-03T14:16:32.979Z,96.50001
2022-12-03T14:46:56.788Z,96.8
2022-12-03T15:17:15.541Z,97.40001
2022-12-03T15:47:33.959Z,98
2022-12-03T16:17:52.780Z,97.9
2022-12-03T16:48:10.533Z,98.30001
2022-12-03T17:18:28.144Z,97.80001
2022-12-03T18:19:06.543Z,98.30001
2022-12-03T18:49:23.904Z,98.5
2022-12-03T19:19:42.335Z,98.6
2022-12-03T19:50:05.286Z,98.7
2022-12-03T20:20:22.049Z,98.30001
2022-12-03T20:50:40.956Z,98.1
2022-12-03T21:20:59.093Z,98.1
2022-12-03T21:51:17.643Z,96.7
2022-12-03T22:21:36.432Z,96.1
2022-12-03T22:51:54.015Z,96.1
2022-12-03T23:22:10.934Z,95.7
2022-12-03T23:52:27.448Z,95.5
